Time;durP1;ratioP1;P1;durP2;ratioP2;P2;SDS_P1;SDS_P2;PMS_P1;PMS_P2;Temp;Humidity;BMP_temperature;BMP_pressure;BME280_temperature;BME280_humidity;BME280_pressure;Samples;Min_cycle;Max_cycle;Signal;HPM_P1;HPM_P2
2020/12/10 00:00:06;;;;;;;0.70;0.70;;;-0.40;99.90;;;0.00;100.00;-20681.53;5014803;28;20195;-72
2020/12/10 00:02:33;;;;;;;0.60;0.60;;;-0.50;99.90;;;0.01;100.00;-20681.66;5014225;28;20651;-72
2020/12/10 00:05:00;;;;;;;0.60;0.60;;;-0.50;99.90;;;-0.04;100.00;-20680.41;5015055;28;20207;-72
2020/12/10 00:07:27;;;;;;;0.60;0.60;;;-0.40;99.90;;;0.08;100.00;-20683.63;5014449;28;20222;-72
2020/12/10 00:09:54;;;;;;;0.70;0.60;;;-0.40;99.90;;;0.14;100.00;-20685.31;5014674;28;20178;-72
2020/12/10 00:12:21;;;;;;;0.60;0.60;;;-0.40;99.90;;;0.14;100.00;-20685.31;5014176;28;20198;-72
2020/12/10 00:14:53;;;;;;;0.60;0.60;;;-0.40;99.90;;;0.18;100.00;-20686.41;5014577;28;20301;-72
2020/12/10 00:17:26;;;;;;;0.70;0.60;;;-0.40;99.90;;;0.25;100.00;-20688.38;5010807;28;20194;-72
2020/12/10 00:19:54;;;;;;;0.60;0.50;;;-0.30;99.90;;;0.26;100.00;-20688.66;5001631;28;20300;-72
2020/12/10 00:22:22;;;;;;;0.60;0.50;;;-0.30;99.90;;;0.32;100.00;-20690.34;5014958;28;20183;-72
2020/12/10 00:24:49;;;;;;;0.60;0.60;;;-0.20;99.90;;;0.40;100.00;-20692.56;5014602;28;20217;-72
2020/12/10 00:27:17;;;;;;;0.70;0.60;;;-0.20;99.90;;;0.34;100.00;-20690.75;5012506;28;20294;-72
2020/12/10 00:29:45;;;;;;;0.68;0.68;;;-0.20;99.90;;;0.40;100.00;-20692.56;5013793;28;20249;-72
2020/12/10 00:32:13;;;;;;;0.60;0.55;;;-0.10;99.90;;;0.40;100.00;-20692.56;5013654;28;20222;-71
2020/12/10 00:34:41;;;;;;;0.60;0.50;;;-0.10;99.90;;;0.37;100.00;-20691.75;5014511;28;20562;-72
2020/12/10 00:37:09;;;;;;;0.60;0.50;;;-0.20;99.90;;;0.21;100.00;-20687.25;5014307;28;20191;-71
2020/12/10 00:39:36;;;;;;;0.60;0.50;;;-0.20;99.90;;;0.17;100.00;-20686.13;5005867;28;20590;-71
2020/12/10 00:42:04;;;;;;;0.60;0.50;;;-0.20;99.90;;;0.17;100.00;-20686.13;5014211;28;20222;-71
2020/12/10 00:44:32;;;;;;;0.60;0.60;;;-0.30;99.90;;;0.20;100.00;-20686.97;5012334;28;20268;-72
2020/12/10 00:47:00;;;;;;;0.60;0.60;;;-0.30;99.90;;;0.09;100.00;-20684.03;5012925;28;20194;-72
2020/12/10 00:49:30;;;;;;;0.60;0.60;;;-0.40;99.90;;;0.12;100.00;-20684.88;5014364;28;20214;-72
2020/12/10 00:51:59;;;;;;;0.70;0.60;;;-0.40;99.90;;;0.09;100.00;-20684.03;5013877;28;20253;-71
2020/12/10 00:54:32;;;;;;;0.60;0.50;;;-0.30;99.90;;;0.10;100.00;-20684.19;5009294;28;20298;-72
2020/12/10 00:56:59;;;;;;;0.60;0.50;;;-0.40;99.90;;;0.09;100.00;-20683.91;4995738;28;20699;-72
2020/12/10 00:59:26;;;;;;;0.60;0.60;;;-0.40;99.90;;;0.01;100.00;-20681.66;5012228;28;20191;-71
2020/12/10 01:01:53;;;;;;;0.60;0.50;;;-0.40;99.90;;;-0.10;100.00;-20678.88;5011883;28;20298;-72
2020/12/10 01:04:20;;;;;;;0.60;0.60;;;-0.50;99.90;;;-0.13;100.00;-20678.03;5027439;28;20229;-72
2020/12/10 01:06:47;;;;;;;0.70;0.65;;;-0.50;99.90;;;-0.12;100.00;-20678.31;4997837;28;20608;-71
2020/12/10 01:09:15;;;;;;;0.60;0.60;;;-0.60;99.90;;;-0.23;100.00;-20675.22;5005408;28;20193;-72
2020/12/10 01:11:42;;;;;;;0.60;0.50;;;-0.60;99.90;;;-0.25;100.00;-20674.66;5013814;28;20245;-72
2020/12/10 01:14:09;;;;;;;2.85;2.75;;;-0.60;99.90;;;-0.16;100.00;-20677.03;5013818;28;20206;-71
2020/12/10 01:16:38;;;;;;;0.60;0.57;;;-0.60;99.90;;;-0.19;100.00;-20676.34;5012544;28;20413;-72
2020/12/10 01:19:05;;;;;;;0.60;0.55;;;-0.60;99.90;;;-0.28;100.00;-20673.97;5013872;28;20578;-72
2020/12/10 01:21:37;;;;;;;0.60;0.60;;;-0.70;99.90;;;-0.23;100.00;-20675.22;5014046;28;20183;-72
2020/12/10 01:24:04;;;;;;;0.60;0.60;;;-0.60;99.90;;;-0.16;100.00;-20677.19;5006883;28;20195;-72
2020/12/10 01:26:33;;;;;;;0.60;0.60;;;-0.60;99.90;;;-0.13;100.00;-20677.88;4994588;28;20200;-72
2020/12/10 01:29:01;;;;;;;0.70;0.60;;;-0.50;99.90;;;-0.16;100.00;-20677.19;4994127;28;20186;-72
2020/12/10 01:31:30;;;;;;;0.60;0.60;;;-0.50;99.90;;;-0.17;100.00;-20676.91;5002645;28;20285;-71
2020/12/10 01:33:58;;;;;;;0.60;0.50;;;-0.60;99.90;;;-0.21;100.00;-20675.78;4994083;28;20211;-71
2020/12/10 01:36:28;;;;;;;0.60;0.60;;;-0.60;99.90;;;-0.15;100.00;-20677.47;4994070;28;20234;-71
2020/12/10 01:38:57;;;;;;;0.60;0.60;;;-0.50;99.90;;;-0.12;100.00;-20678.31;5001615;28;20619;-71
2020/12/10 01:41:31;;;;;;;0.60;0.50;;;-0.50;99.90;;;-0.18;100.00;-20676.63;4996476;28;20195;-71
2020/12/10 01:44:03;;;;;;;0.60;0.55;;;-0.60;99.90;;;-0.15;100.00;-20677.47;4994971;28;20175;-71
2020/12/10 01:46:30;;;;;;;0.60;0.50;;;-0.60;99.90;;;-0.10;100.00;-20678.88;5010121;28;20191;-72
2020/12/10 01:48:57;;;;;;;0.60;0.50;;;-0.50;99.90;;;-0.09;100.00;-20679.16;4998054;28;20223;-71
2020/12/10 01:51:24;;;;;;;0.60;0.60;;;-0.50;99.90;;;-0.13;100.00;-20677.88;5013448;28;20527;-71
2020/12/10 01:53:52;;;;;;;0.60;0.50;;;-0.50;99.90;;;-0.14;100.00;-20677.59;5012911;28;20191;-71
2020/12/10 01:56:19;;;;;;;0.60;0.60;;;-0.60;99.90;;;-0.20;100.00;-20676.06;5013604;28;20191;-71
2020/12/10 01:58:46;;;;;;;0.60;0.55;;;-0.60;99.90;;;-0.18;100.00;-20676.50;5017147;28;20261;-71
2020/12/10 02:01:15;;;;;;;0.60;0.50;;;-0.60;99.90;;;-0.19;100.00;-20676.34;5014803;28;20195;-71
2020/12/10 02:03:43;;;;;;;0.60;0.60;;;-0.60;99.90;;;-0.14;100.00;-20677.75;5032328;28;20296;-71
2020/12/10 02:06:16;;;;;;;0.60;0.60;;;-0.60;99.90;;;-0.08;100.00;-20679.28;5016931;28;20199;-71
2020/12/10 02:08:44;;;;;;;0.60;0.52;;;-0.50;99.90;;;-0.15;100.00;-20677.47;5017224;28;20167;-71
2020/12/10 02:11:11;;;;;;;0.70;0.70;;;-0.60;99.90;;;-0.24;100.00;-20674.94;5014051;28;20194;-71
2020/12/10 02:13:39;;;;;;;0.60;0.60;;;-0.60;99.90;;;-0.23;100.00;-20675.09;5015520;28;20202;-71
2020/12/10 02:16:08;;;;;;;0.60;0.57;;;-0.60;99.90;;;-0.28;100.00;-20673.81;5015274;28;20203;-71
2020/12/10 02:18:37;;;;;;;0.70;0.60;;;-0.70;99.90;;;-0.25;100.00;-20674.66;5016101;28;20214;-71
2020/12/10 02:21:06;;;;;;;0.60;0.50;;;-0.70;99.90;;;-0.27;100.00;-20674.25;5016123;28;20218;-71
2020/12/10 02:23:35;;;;;;;0.60;0.60;;;-0.70;99.90;;;-0.31;100.00;-20672.97;5015297;28;20183;-71
2020/12/10 02:26:04;;;;;;;0.60;0.60;;;-0.70;99.90;;;-0.30;100.00;-20673.41;5015430;28;20245;-71
2020/12/10 02:28:32;;;;;;;0.70;0.60;;;-0.70;99.90;;;-0.30;100.00;-20673.25;5016470;28;20175;-71
2020/12/10 02:31:01;;;;;;;0.70;0.60;;;-0.70;99.90;;;-0.23;100.00;-20675.22;5013720;28;20205;-71
2020/12/10 02:33:29;;;;;;;0.70;0.60;;;-0.60;99.90;;;-0.22;100.00;-20675.38;5016226;28;20627;-71
2020/12/10 02:35:56;;;;;;;0.70;0.60;;;-0.60;99.90;;;-0.18;100.00;-20676.63;5016651;28;20718;-72
2020/12/10 02:38:23;;;;;;;0.75;0.73;;;-0.60;99.90;;;-0.09;100.00;-20679.00;5016175;28;20179;-72
2020/12/10 02:40:51;;;;;;;0.60;0.50;;;-0.50;99.90;;;-0.01;100.00;-20681.25;5017446;28;20556;-71
2020/12/10 02:43:18;;;;;;;0.60;0.50;;;-0.50;99.90;;;0.07;100.00;-20683.34;5016558;28;20190;-71
2020/12/10 02:45:45;;;;;;;0.60;0.50;;;-0.40;99.90;;;0.09;100.00;-20683.91;5014852;28;20640;-71
2020/12/10 02:48:12;;;;;;;0.60;0.60;;;-0.40;99.90;;;0.11;100.00;-20684.47;5016706;28;20243;-71
2020/12/10 02:50:39;;;;;;;0.60;0.60;;;-0.30;99.90;;;0.19;100.00;-20686.84;5016438;28;20714;-71
2020/12/10 02:53:06;;;;;;;0.60;0.50;;;-0.40;99.90;;;0.08;100.00;-20683.75;5010512;28;20220;-72
2020/12/10 02:55:33;;;;;;;0.60;0.50;;;-0.40;99.90;;;0.03;100.00;-20682.22;4996499;28;20207;-72
2020/12/10 02:58:02;;;;;;;0.60;0.50;;;-0.50;99.90;;;-0.10;100.00;-20678.88;5000571;28;20195;-72
2020/12/10 03:00:29;;;;;;;0.70;0.60;;;-0.60;99.90;;;-0.08;100.00;-20679.41;5015219;28;20223;-71
2020/12/10 03:02:56;;;;;;;0.60;0.50;;;-0.50;99.90;;;-0.10;100.00;-20678.88;5016342;28;20187;-71
2020/12/10 03:05:23;;;;;;;0.60;0.50;;;-0.60;99.90;;;-0.13;100.00;-20678.03;5015472;28;20183;-72
2020/12/10 03:07:50;;;;;;;0.60;0.50;;;-0.60;99.90;;;-0.13;100.00;-20677.88;5015856;28;20198;-72
2020/12/10 03:10:17;;;;;;;0.60;0.60;;;-0.60;99.90;;;-0.21;100.00;-20675.78;5015866;28;20278;-72
2020/12/10 03:12:44;;;;;;;1.02;1.02;;;-0.70;99.90;;;-0.17;100.00;-20676.91;5015565;28;20289;-72
2020/12/10 03:15:12;;;;;;;0.60;0.60;;;-0.60;99.90;;;-0.21;100.00;-20675.78;5015667;28;20269;-71
2020/12/10 03:17:39;;;;;;;0.60;0.50;;;-0.60;99.90;;;-0.18;100.00;-20676.63;5014513;28;20241;-72
2020/12/10 03:20:06;;;;;;;0.60;0.60;;;-0.60;99.90;;;-0.30;100.00;-20673.25;5015665;28;20250;-71
2020/12/10 03:22:33;;;;;;;0.60;0.60;;;-0.70;99.90;;;-0.35;100.00;-20671.88;5015992;28;20183;-71
2020/12/10 03:25:00;;;;;;;0.60;0.50;;;-0.70;99.90;;;-0.40;100.00;-20670.47;5015085;28;20191;-71
2020/12/10 03:27:27;;;;;;;0.70;0.70;;;-0.80;99.90;;;-0.44;100.00;-20669.47;5015951;28;20290;-71
2020/12/10 03:29:54;;;;;;;0.60;0.50;;;-0.80;99.90;;;-0.40;100.00;-20670.47;5010527;28;20261;-71
2020/12/10 03:32:22;;;;;;;0.70;0.60;;;-0.80;99.90;;;-0.44;100.00;-20669.34;5011070;28;20274;-71
2020/12/10 03:34:50;;;;;;;0.60;0.50;;;-0.80;99.90;;;-0.40;100.00;-20670.47;5015361;28;20279;-71
2020/12/10 03:37:17;;;;;;;0.60;0.60;;;-0.80;99.90;;;-0.51;100.00;-20667.66;5015455;28;20211;-72
2020/12/10 03:39:44;;;;;;;0.70;0.60;;;-0.90;99.90;;;-0.52;100.00;-20667.38;5014745;28;20203;-71
2020/12/10 03:42:11;;;;;;;0.63;0.60;;;-0.90;99.90;;;-0.55;100.00;-20666.53;5015383;28;20179;-71
2020/12/10 03:44:37;;;;;;;0.60;0.60;;;-0.90;99.90;;;-0.52;100.00;-20667.38;5014909;28;20278;-71
2020/12/10 03:47:04;;;;;;;0.60;0.50;;;-0.90;99.90;;;-0.61;100.00;-20664.88;5014060;28;20272;-71
2020/12/10 03:49:32;;;;;;;0.60;0.60;;;-0.90;99.90;;;-0.53;100.00;-20667.09;5015173;28;20633;-71
2020/12/10 03:51:59;;;;;;;0.60;0.50;;;-0.90;99.90;;;-0.48;100.00;-20668.34;5010733;28;20257;-71
2020/12/10 03:54:26;;;;;;;0.60;0.50;;;-0.80;99.90;;;-0.52;100.00;-20667.38;4995365;28;20213;-71
2020/12/10 03:56:53;;;;;;;0.60;0.60;;;-0.90;99.90;;;-0.57;100.00;-20665.97;4996883;28;20249;-71
2020/12/10 03:59:20;;;;;;;0.88;0.88;;;-1.00;99.90;;;-0.53;100.00;-20666.97;5014007;28;20195;-72
2020/12/10 04:01:47;;;;;;;0.60;0.60;;;-0.90;99.90;;;-0.61;100.00;-20664.88;5013123;28;20206;-71
2020/12/10 04:04:14;;;;;;;0.60;0.50;;;-0.90;99.90;;;-0.51;100.00;-20667.53;5014783;28;20215;-71
2020/12/10 04:06:45;;;;;;;0.60;0.50;;;-0.90;99.90;;;-0.49;100.00;-20668.09;5015083;28;20289;-71
2020/12/10 04:09:12;;;;;;;0.60;0.50;;;-0.90;99.90;;;-0.61;100.00;-20664.88;5015028;28;20265;-71
2020/12/10 04:11:40;;;;;;;0.60;0.50;;;-0.90;99.90;;;-0.58;100.00;-20665.69;5004380;28;20655;-71
2020/12/10 04:14:09;;;;;;;0.60;0.60;;;-0.90;99.90;;;-0.62;100.00;-20664.59;5007784;28;20249;-71
2020/12/10 04:16:37;;;;;;;0.60;0.60;;;-0.90;99.90;;;-0.59;100.00;-20665.28;5011312;28;20655;-71
2020/12/10 04:19:04;;;;;;;0.60;0.60;;;-1.00;99.90;;;-0.61;100.00;-20664.72;5011018;28;20305;-71
2020/12/10 04:21:34;;;;;;;0.60;0.50;;;-1.00;99.90;;;-0.63;100.00;-20664.31;5007866;28;20199;-71
2020/12/10 04:24:03;;;;;;;0.60;0.60;;;-1.00;99.90;;;-0.53;100.00;-20667.09;5010466;28;20269;-71
2020/12/10 04:26:30;;;;;;;0.60;0.60;;;-0.90;99.90;;;-0.44;100.00;-20669.47;5009576;28;20639;-71
2020/12/10 04:28:57;;;;;;;0.60;0.50;;;-0.80;99.90;;;-0.53;100.00;-20667.09;5014148;28;20526;-71
2020/12/10 04:31:24;;;;;;;0.65;0.60;;;-0.90;99.90;;;-0.50;100.00;-20667.94;5009446;28;20667;-72
2020/12/10 04:33:52;;;;;;;0.60;0.60;;;-0.90;99.90;;;-0.53;100.00;-20666.97;5003252;28;20226;-71
2020/12/10 04:36:19;;;;;;;0.60;0.60;;;-0.90;99.90;;;-0.68;100.00;-20662.75;4998111;28;20282;-71
2020/12/10 04:38:46;;;;;;;0.60;0.50;;;-1.00;99.90;;;-0.71;100.00;-20662.06;5007023;28;20207;-71
2020/12/10 04:41:14;;;;;;;0.70;0.60;;;-1.10;99.90;;;-0.82;100.00;-20658.97;4998402;28;20276;-72
2020/12/10 04:43:41;;;;;;;0.68;0.60;;;-1.10;99.90;;;-0.95;100.00;-20655.34;5000669;28;20542;-71
2020/12/10 04:46:09;;;;;;;0.60;0.60;;;-1.20;99.90;;;-0.94;100.00;-20655.63;5011637;28;20187;-71
2020/12/10 04:48:36;;;;;;;0.60;0.60;;;-1.30;99.90;;;-0.91;100.00;-20656.59;5006210;28;20219;-72
2020/12/10 04:51:08;;;;;;;0.60;0.60;;;-1.30;99.90;;;-0.93;100.00;-20655.91;5005478;28;20211;-71
2020/12/10 04:53:35;;;;;;;0.60;0.60;;;-1.20;99.90;;;-0.81;100.00;-20659.41;5001595;28;21556;-72
2020/12/10 04:56:06;;;;;;;0.60;0.50;;;-1.20;99.90;;;-0.84;100.00;-20658.41;5009927;28;20235;-71
2020/12/10 04:58:35;;;;;;;0.60;0.50;;;-1.10;99.90;;;-0.67;100.00;-20663.03;5007904;28;20223;-71
2020/12/10 05:01:03;;;;;;;0.60;0.50;;;-1.10;99.90;;;-0.62;100.00;-20664.44;5007900;28;20195;-71
2020/12/10 05:03:30;;;;;;;0.70;0.60;;;-1.00;99.90;;;-0.74;100.00;-20661.22;5010718;28;20223;-71
2020/12/10 05:06:09;;;;;;;0.60;0.60;;;-1.10;99.90;;;-0.79;100.00;-20659.81;5012111;28;20249;-71
2020/12/10 05:08:36;;;;;;;0.65;0.60;;;-1.20;99.90;;;-0.89;100.00;-20657.00;5011518;28;20232;-71
2020/12/10 05:11:07;;;;;;;0.60;0.60;;;-1.30;99.90;;;-1.04;100.00;-20653.09;5010626;28;20192;-72
2020/12/10 05:13:35;;;;;;;0.60;0.60;;;-1.30;99.90;;;-1.07;100.00;-20652.25;4999124;28;20191;-71
2020/12/10 05:16:03;;;;;;;0.70;0.60;;;-1.40;99.90;;;-0.98;100.00;-20654.78;5008136;28;20231;-71
2020/12/10 05:18:30;;;;;;;0.70;0.60;;;-1.40;99.90;;;-1.02;100.00;-20653.66;5013961;28;20293;-71
2020/12/10 05:20:58;;;;;;;0.60;0.60;;;-1.40;99.90;;;-1.01;100.00;-20653.94;5013674;28;20191;-71
2020/12/10 05:23:32;;;;;;;0.60;0.60;;;-1.40;99.90;;;-0.94;100.00;-20655.75;5012471;28;20210;-71
2020/12/10 05:26:02;;;;;;;0.60;0.55;;;-1.30;99.90;;;-0.88;100.00;-20657.31;5014041;28;20175;-71
2020/12/10 05:28:42;;;;;;;0.60;0.60;;;-1.20;99.90;;;-1.06;100.00;-20652.53;5010227;28;20215;-71
2020/12/10 05:31:11;;;;;;;0.80;0.80;;;-1.30;99.90;;;-1.03;100.00;-20653.38;5013154;28;20194;-71
2020/12/10 05:33:53;;;;;;;0.60;0.60;;;-1.40;99.90;;;-0.94;100.00;-20655.63;5017733;28;20301;-71
2020/12/10 05:36:22;;;;;;;0.60;0.50;;;-1.30;99.90;;;-0.94;100.00;-20655.63;5017814;28;20269;-71
2020/12/10 05:39:02;;;;;;;0.60;0.60;;;-1.30;99.90;;;-0.86;100.00;-20657.84;5018037;28;20244;-71
2020/12/10 05:41:29;;;;;;;0.60;0.60;;;-1.20;99.90;;;-0.90;100.00;-20656.88;5016342;28;20663;-71
2020/12/10 05:44:13;;;;;;;0.60;0.50;;;-1.20;99.90;;;-1.01;100.00;-20653.94;5017392;28;20261;-72
2020/12/10 05:46:41;;;;;;;0.60;0.60;;;-1.30;99.90;;;-0.94;100.00;-20655.63;5017195;28;20175;-71
2020/12/10 05:49:10;;;;;;;1.10;1.10;;;-1.40;99.90;;;-0.97;100.00;-20655.06;5017475;28;20215;-71
2020/12/10 05:51:43;;;;;;;0.60;0.57;;;-1.40;99.90;;;-0.97;100.00;-20654.91;5017393;28;20206;-71
2020/12/10 05:54:12;;;;;;;0.60;0.50;;;-1.30;99.90;;;-0.90;100.00;-20656.75;5017291;28;20175;-71
2020/12/10 05:56:53;;;;;;;0.70;0.70;;;-1.30;99.90;;;-0.83;100.00;-20658.84;5002224;28;20203;-71
2020/12/10 05:59:23;;;;;;;0.60;0.60;;;-1.20;99.90;;;-0.87;100.00;-20657.56;4997193;28;20200;-71
2020/12/10 06:01:50;;;;;;;0.60;0.50;;;-1.20;99.90;;;-0.89;100.00;-20657.00;5017104;28;20241;-71
2020/12/10 06:04:17;;;;;;;0.88;0.88;;;-1.30;99.90;;;-0.89;100.00;-20657.00;5017128;28;20260;-71
2020/12/10 06:06:50;;;;;;;0.73;0.73;;;-1.30;99.90;;;-0.89;100.00;-20657.00;5017019;28;20305;-71
2020/12/10 06:09:19;;;;;;;0.60;0.55;;;-1.20;99.90;;;-0.92;100.00;-20656.19;5032587;28;20207;-71
2020/12/10 06:11:47;;;;;;;0.60;0.60;;;-1.20;99.90;;;-0.85;100.00;-20658.13;5017504;28;20265;-71
2020/12/10 06:14:14;;;;;;;1.92;1.15;;;-1.20;99.90;;;-0.88;100.00;-20657.44;5016983;28;20551;-71
2020/12/10 06:16:42;;;;;;;0.80;0.80;;;-1.20;99.90;;;-0.78;100.00;-20660.09;5016427;28;20206;-71
2020/12/10 06:19:10;;;;;;;0.60;0.60;;;-1.20;99.90;;;-0.74;100.00;-20661.22;5015714;28;20211;-71
2020/12/10 06:21:42;;;;;;;0.60;0.57;;;-1.20;99.90;;;-0.86;100.00;-20658.00;5017115;28;20201;-71
2020/12/10 06:24:34;;;;;;;0.60;0.50;;;-1.30;99.90;;;-0.84;100.00;-20658.41;5017435;28;20175;-71
2020/12/10 06:27:22;;;;;;;1.45;1.35;;;-1.30;99.90;;;-0.81;100.00;-20659.25;5014328;28;20202;-71
2020/12/10 06:29:49;;;;;;;0.60;0.60;;;-1.30;99.90;;;-0.75;100.00;-20660.94;5017022;28;20191;-71
2020/12/10 06:32:18;;;;;;;0.65;0.60;;;-1.10;99.90;;;-0.72;100.00;-20661.78;5016180;28;20226;-71
2020/12/10 06:34:49;;;;;;;0.70;0.70;;;-1.10;99.90;;;-0.70;100.00;-20662.34;5003878;28;20222;-72
2020/12/10 06:37:22;;;;;;;0.60;0.60;;;-1.10;99.90;;;-0.70;100.00;-20662.34;4999693;28;20187;-71
2020/12/10 06:39:53;;;;;;;0.98;0.90;;;-1.10;99.90;;;-0.66;100.00;-20663.47;4997183;28;20694;-71
2020/12/10 06:42:21;;;;;;;0.60;0.60;;;-1.00;99.90;;;-0.67;100.00;-20663.03;5012058;28;20190;-71
2020/12/10 06:44:49;;;;;;;0.60;0.50;;;-1.00;99.90;;;-0.65;100.00;-20663.59;5016385;28;20217;-71
2020/12/10 06:47:19;;;;;;;0.60;0.50;;;-1.00;99.90;;;-0.57;100.00;-20665.97;5016138;28;20183;-71
2020/12/10 06:49:46;;;;;;;0.70;0.60;;;-1.00;99.90;;;-0.53;100.00;-20666.97;5014718;28;20743;-71
2020/12/10 06:52:18;;;;;;;0.60;0.60;;;-0.90;99.90;;;-0.53;100.00;-20666.97;5001516;28;20191;-71
2020/12/10 06:55:10;;;;;;;0.60;0.60;;;-0.90;99.90;;;-0.56;100.00;-20666.13;4996786;28;20238;-71
2020/12/10 06:58:13;;;;;;;0.60;0.60;;;-1.00;99.90;;;-0.56;100.00;-20666.25;5015503;28;20221;-71
2020/12/10 07:00:48;;;;;;;0.70;0.60;;;-1.00;99.90;;;-0.55;100.00;-20666.41;5015973;28;20277;-71
2020/12/10 07:03:21;;;;;;;0.70;0.60;;;-0.90;99.90;;;-0.50;100.00;-20667.94;5015988;28;20214;-71
2020/12/10 07:05:48;;;;;;;0.60;0.60;;;-0.90;99.90;;;-0.53;100.00;-20667.09;5015196;28;20237;-71
2020/12/10 07:08:17;;;;;;;0.60;0.60;;;-0.90;99.90;;;-0.54;100.00;-20666.81;5016096;28;20194;-71
2020/12/10 07:10:49;;;;;;;0.60;0.57;;;-0.90;99.90;;;-0.53;100.00;-20667.09;5016742;28;20210;-71
2020/12/10 07:13:29;;;;;;;0.60;0.60;;;-0.90;99.90;;;-0.54;100.00;-20666.81;5016021;28;20266;-71
2020/12/10 07:15:56;;;;;;;0.60;0.50;;;-0.90;99.90;;;-0.51;100.00;-20667.53;5015815;28;20682;-71
2020/12/10 07:18:24;;;;;;;0.60;0.60;;;-0.90;99.90;;;-0.53;100.00;-20667.09;5015653;28;20296;-71
2020/12/10 07:20:51;;;;;;;0.60;0.50;;;-0.90;99.90;;;-0.58;100.00;-20665.69;5015820;28;20250;-71
2020/12/10 07:23:18;;;;;;;1.08;0.98;;;-1.00;99.90;;;-0.53;100.00;-20667.09;5014691;28;20198;-71
2020/12/10 07:25:45;;;;;;;0.80;0.80;;;-1.00;99.90;;;-0.59;100.00;-20665.28;5012645;28;20191;-71
2020/12/10 07:28:12;;;;;;;0.65;0.60;;;-1.00;99.90;;;-0.67;100.00;-20663.03;5015818;28;20249;-72
2020/12/10 07:30:41;;;;;;;0.70;0.70;;;-1.00;99.90;;;-0.67;100.00;-20663.19;5015367;28;20221;-71
2020/12/10 07:33:21;;;;;;;0.70;0.60;;;-1.00;99.90;;;-0.60;100.00;-20665.13;5015719;28;20268;-71
2020/12/10 07:35:49;;;;;;;0.70;0.60;;;-0.90;99.90;;;-0.60;100.00;-20665.13;5015347;28;20220;-71
2020/12/10 07:38:16;;;;;;;0.60;0.50;;;-0.90;99.90;;;-0.54;100.00;-20666.81;5015841;28;20199;-71
2020/12/10 07:40:52;;;;;;;0.70;0.60;;;-0.90;99.90;;;-0.50;100.00;-20667.94;5015893;28;20190;-71
2020/12/10 07:43:19;;;;;;;2.17;1.40;;;-0.90;99.90;;;-0.49;100.00;-20668.22;5015405;28;20554;-72
2020/12/10 07:45:50;;;;;;;0.60;0.60;;;-0.90;99.90;;;-0.50;100.00;-20667.81;5015078;28;20279;-71
2020/12/10 07:48:17;;;;;;;0.60;0.60;;;-0.90;99.90;;;-0.46;100.00;-20668.78;5014904;28;20219;-72
2020/12/10 07:50:46;;;;;;;0.60;0.50;;;-0.90;99.90;;;-0.40;100.00;-20670.59;5015351;28;20194;-71
2020/12/10 07:53:14;;;;;;;0.60;0.50;;;-0.90;99.90;;;-0.43;100.00;-20669.63;5011936;28;20233;-71
2020/12/10 07:55:51;;;;;;;0.60;0.60;;;-0.80;99.90;;;-0.47;100.00;-20668.50;5013015;28;20246;-71
2020/12/10 07:58:30;;;;;;;0.60;0.60;;;-0.80;99.90;;;-0.50;100.00;-20667.94;5013330;28;20186;-71
2020/12/10 08:01:01;;;;;;;0.63;0.60;;;-0.80;99.90;;;-0.41;100.00;-20670.19;5014477;28;20190;-71
2020/12/10 08:03:46;;;;;;;0.60;0.50;;;-0.80;99.90;;;-0.46;100.00;-20668.78;5012674;28;20242;-72
2020/12/10 08:06:16;;;;;;;0.60;0.60;;;-0.80;99.90;;;-0.51;100.00;-20667.66;5006191;28;20205;-71
2020/12/10 08:08:55;;;;;;;0.60;0.60;;;-0.90;99.90;;;-0.46;100.00;-20668.78;5014997;28;20190;-71
2020/12/10 08:11:23;;;;;;;0.60;0.50;;;-0.80;99.90;;;-0.34;100.00;-20672.16;4995389;28;20184;-71
2020/12/10 08:14:02;;;;;;;0.65;0.60;;;-0.70;99.90;;;-0.28;100.00;-20673.81;4995847;28;20219;-71
2020/12/10 08:16:39;;;;;;;1.08;1.05;;;-0.70;99.90;;;-0.17;100.00;-20676.91;4995166;28;20219;-71
2020/12/10 08:19:18;;;;;;;0.60;0.50;;;-0.60;99.90;;;-0.17;100.00;-20676.91;4995283;28;20667;-71
2020/12/10 08:21:46;;;;;;;0.60;0.50;;;-0.60;99.90;;;-0.10;100.00;-20678.88;5001436;28;20213;-71
2020/12/10 08:24:34;;;;;;;0.60;0.60;;;-0.60;99.90;;;0.04;100.00;-20682.50;5011796;28;20195;-72
2020/12/10 08:27:02;;;;;;;0.63;0.55;;;-0.40;99.90;;;0.07;100.00;-20683.47;5014999;28;20202;-72
2020/12/10 08:29:29;;;;;;;0.60;0.50;;;-0.40;99.90;;;0.15;100.00;-20685.59;5013171;28;20238;-72
2020/12/10 08:32:06;;;;;;;0.75;0.60;;;-0.30;99.90;;;0.19;100.00;-20686.84;5013898;28;20244;-72
2020/12/10 08:34:35;;;;;;;0.60;0.60;;;-0.30;99.90;;;0.24;100.00;-20688.09;5014211;28;20245;-72
2020/12/10 08:37:04;;;;;;;0.60;0.60;;;-0.30;99.90;;;0.29;100.00;-20689.50;4999004;28;20212;-72
2020/12/10 08:39:33;;;;;;;0.60;0.50;;;-0.20;99.90;;;0.36;100.00;-20691.47;4994634;28;20195;-72
2020/12/10 08:42:01;;;;;;;0.70;0.70;;;-0.10;99.90;;;0.41;100.00;-20692.84;5009575;28;20191;-72
2020/12/10 08:44:44;;;;;;;0.60;0.60;;;-0.10;99.90;;;0.42;100.00;-20693.13;4994653;28;20282;-72
2020/12/10 08:47:25;;;;;;;0.63;0.60;;;-0.10;99.90;;;0.47;100.00;-20694.53;4996922;28;20184;-72
2020/12/10 08:50:22;;;;;;;0.98;0.80;;;0.00;99.90;;;0.52;100.00;-20695.66;4994796;28;20227;-73
2020/12/10 08:53:01;;;;;;;0.60;0.60;;;0.10;99.90;;;0.57;100.00;-20697.06;4994809;28;20188;-72
2020/12/10 08:55:38;;;;;;;0.60;0.60;;;0.10;99.90;;;0.67;100.00;-20700.00;4994534;28;20238;-73
2020/12/10 08:58:05;;;;;;;0.60;0.60;;;0.10;99.90;;;0.67;100.00;-20699.84;4999406;28;20710;-72
2020/12/10 09:00:37;;;;;;;0.60;0.52;;;0.20;99.90;;;0.70;100.00;-20700.69;5012957;28;20195;-72
2020/12/10 09:03:05;;;;;;;0.60;0.60;;;0.20;99.90;;;0.76;100.00;-20702.38;5013953;28;20206;-72
2020/12/10 09:05:32;;;;;;;0.60;0.60;;;0.20;99.90;;;0.77;100.00;-20702.66;5014142;28;20191;-72
2020/12/10 09:07:59;;;;;;;0.70;0.70;;;0.30;99.90;;;0.93;100.00;-20707.13;5012929;28;20203;-72
2020/12/10 09:10:29;;;;;;;0.60;0.50;;;0.40;99.90;;;0.83;100.00;-20704.19;5014084;28;20182;-72
2020/12/10 09:12:59;;;;;;;0.68;0.60;;;0.40;99.90;;;0.83;100.00;-20704.31;5013953;28;20185;-74
2020/12/10 09:15:40;;;;;;;0.60;0.50;;;0.40;99.90;;;1.04;100.00;-20709.94;5013843;28;20195;-72
2020/12/10 09:18:08;;;;;;;0.60;0.50;;;0.50;99.90;;;1.00;100.00;-20708.81;5013608;28;20719;-72
2020/12/10 09:20:35;;;;;;;0.60;0.60;;;0.50;99.90;;;1.01;100.00;-20709.22;5013585;28;20187;-72
2020/12/10 09:23:02;;;;;;;0.60;0.60;;;0.50;99.90;;;1.07;100.00;-20710.91;5012582;28;20195;-72
2020/12/10 09:25:29;;;;;;;0.60;0.50;;;0.60;99.90;;;1.10;100.00;-20711.75;5013907;28;20175;-72
2020/12/10 09:27:57;;;;;;;0.63;0.57;;;0.70;99.90;;;1.17;100.00;-20713.56;5014356;28;20198;-72
2020/12/10 09:30:25;;;;;;;0.60;0.50;;;0.70;99.90;;;1.25;100.00;-20715.78;5013462;28;20190;-72
2020/12/10 09:32:52;;;;;;;0.60;0.60;;;0.80;99.90;;;1.44;100.00;-20720.97;4996445;28;20554;-72
2020/12/10 09:35:20;;;;;;;0.88;0.88;;;0.90;99.90;;;1.49;100.00;-20722.22;4994100;28;20211;-72
2020/12/10 09:37:47;;;;;;;0.60;0.60;;;0.90;99.90;;;1.63;100.00;-20726.13;5009451;28;20179;-71
2020/12/10 09:40:15;;;;;;;0.60;0.50;;;1.10;99.90;;;1.79;100.00;-20730.47;4994365;28;20660;-71
2020/12/10 09:42:44;;;;;;;0.60;0.60;;;1.20;99.90;;;1.79;100.00;-20730.47;4997770;28;20546;-71
2020/12/10 09:45:15;;;;;;;0.70;0.60;;;1.20;99.90;;;1.80;100.00;-20730.88;5002653;28;20267;-71
2020/12/10 09:47:46;;;;;;;0.60;0.60;;;1.30;99.90;;;1.89;100.00;-20733.25;4996165;28;20270;-71
2020/12/10 09:50:23;;;;;;;0.60;0.60;;;1.30;99.90;;;1.79;100.00;-20730.59;5011167;28;20193;-71
2020/12/10 09:58:20;;;;;;;0.60;0.60;;;1.30;99.90;;;1.86;100.00;-20732.56;5012313;28;20541;-71
2020/12/10 10:00:49;;;;;;;0.60;0.50;;;1.40;99.90;;;1.97;100.00;-20735.34;5012533;28;20191;-71
2020/12/10 10:03:18;;;;;;;0.60;0.60;;;1.40;99.90;;;1.99;100.00;-20735.91;5013154;28;20215;-71
2020/12/10 10:05:56;;;;;;;0.70;0.60;;;1.50;99.90;;;1.97;100.00;-20735.34;5013588;28;20179;-71
2020/12/10 10:08:26;;;;;;;0.60;0.60;;;1.50;99.90;;;2.10;100.00;-20738.97;5014046;28;20290;-71
2020/12/10 10:10:54;;;;;;;0.60;0.60;;;1.60;99.90;;;2.35;100.00;-20745.97;5013399;28;20179;-71
2020/12/10 10:13:21;;;;;;;0.60;0.60;;;1.70;99.90;;;2.40;100.00;-20747.38;5013457;28;20187;-71
2020/12/10 10:15:50;;;;;;;0.70;0.70;;;1.90;99.90;;;2.52;100.00;-20750.56;5013415;28;20203;-70
2020/12/10 10:18:18;;;;;;;1.27;1.15;;;2.00;99.90;;;2.58;100.00;-20752.13;5014779;28;20207;-70
2020/12/10 10:20:45;;;;;;;0.60;0.60;;;1.90;99.90;;;2.67;100.00;-20754.75;5017276;28;20698;-71
2020/12/10 10:23:13;;;;;;;0.70;0.60;;;2.10;99.90;;;2.52;100.00;-20750.44;5017219;28;20191;-71
2020/12/10 10:25:40;;;;;;;0.73;0.73;;;2.10;99.90;;;2.65;100.00;-20754.06;5015953;28;20172;-71